createdAt,value
2018-04-02T00:01:57.571Z,7.70
2018-04-02T00:04:25.299Z,7.70
2018-04-02T00:06:53.110Z,7.50
2018-04-02T00:09:21.993Z,7.30
2018-04-02T00:11:50.721Z,7.30
2018-04-02T00:14:19.264Z,7.30
2018-04-02T00:16:47.001Z,7.30
2018-04-02T00:19:14.894Z,7.30
2018-04-02T00:21:42.762Z,7.20
2018-04-02T00:24:10.629Z,7.10
2018-04-02T00:26:40.875Z,7.00
2018-04-02T00:29:43.504Z,7.00
2018-04-02T00:32:15.015Z,6.90
2018-04-02T00:34:46.404Z,6.90
2018-04-02T00:37:17.086Z,6.90
2018-04-02T00:39:47.982Z,6.80
2018-04-02T00:42:15.694Z,6.70
2018-04-02T00:44:43.403Z,6.60
2018-04-02T00:47:11.126Z,6.60
2018-04-02T00:49:38.844Z,6.50
2018-04-02T00:52:06.558Z,6.60
2018-04-02T00:54:35.046Z,6.60
2018-04-02T00:57:03.531Z,6.60
2018-04-02T00:59:32.013Z,6.70
2018-04-02T01:02:00.491Z,6.80
2018-04-02T01:04:28.974Z,6.90
2018-04-02T01:06:57.454Z,6.90
2018-04-02T01:09:25.953Z,6.90
2018-04-02T01:11:53.678Z,6.90
2018-04-02T01:14:21.406Z,6.90
2018-04-02T01:16:49.121Z,6.80
2018-04-02T01:19:16.856Z,6.90
2018-04-02T01:21:44.587Z,7.00
2018-04-02T01:24:12.313Z,7.00
2018-04-02T01:26:40.811Z,7.10
2018-04-02T01:29:09.351Z,7.20
2018-04-02T01:31:37.081Z,7.20
2018-04-02T01:34:04.815Z,7.20
2018-04-02T01:36:33.335Z,7.20
2018-04-02T01:39:01.059Z,7.20
2018-04-02T01:41:29.715Z,7.10
2018-04-02T01:43:57.578Z,7.10
2018-04-02T01:46:25.445Z,7.10
2018-04-02T01:48:53.311Z,7.20
2018-04-02T01:51:21.178Z,7.10
2018-04-02T01:53:49.046Z,7.10
2018-04-02T01:56:16.913Z,6.90
2018-04-02T01:58:44.781Z,7.00
2018-04-02T02:01:12.649Z,6.90
2018-04-02T02:03:40.516Z,6.80
2018-04-02T02:06:08.383Z,6.80
2018-04-02T02:08:36.356Z,6.70
2018-04-02T02:11:04.221Z,6.70
2018-04-02T02:13:32.088Z,6.70
2018-04-02T02:15:59.958Z,6.60
2018-04-02T02:18:27.823Z,6.50
2018-04-02T02:20:55.692Z,6.50
2018-04-02T02:23:23.557Z,6.60
2018-04-02T02:25:51.426Z,6.50
2018-04-02T02:28:19.291Z,6.50
2018-04-02T02:30:47.168Z,6.50
2018-04-02T02:33:15.026Z,6.40
2018-04-02T02:35:42.766Z,6.20
2018-04-02T02:38:10.492Z,6.30
2018-04-02T02:40:38.258Z,6.40
2018-04-02T02:43:06.755Z,6.40
2018-04-02T02:45:34.516Z,6.40
2018-04-02T02:48:02.274Z,6.40
2018-04-02T02:50:30.918Z,6.40
2018-04-02T02:52:58.785Z,6.40
2018-04-02T02:55:26.652Z,6.30
2018-04-02T02:57:54.519Z,6.30
2018-04-02T03:00:22.386Z,6.10
2018-04-02T03:02:50.118Z,6.00
2018-04-02T03:05:18.021Z,6.00
2018-04-02T03:07:45.885Z,5.90
2018-04-02T03:10:13.759Z,5.80
2018-04-02T03:12:41.621Z,5.80
2018-04-02T03:15:09.488Z,5.80
2018-04-02T03:17:37.354Z,5.70
2018-04-02T03:20:05.073Z,5.70
2018-04-02T03:22:32.795Z,5.60
2018-04-02T03:25:00.529Z,5.60
2018-04-02T03:27:28.251Z,5.60
2018-04-02T03:29:56.895Z,5.70
2018-04-02T03:32:24.763Z,5.70
2018-04-02T03:34:52.630Z,5.80
2018-04-02T03:37:20.497Z,5.80
2018-04-02T03:39:48.369Z,5.80
2018-04-02T03:42:16.098Z,5.80
2018-04-02T03:44:43.830Z,5.80
2018-04-02T03:47:12.322Z,5.50
2018-04-02T03:49:40.811Z,5.40
2018-04-02T03:52:08.534Z,5.40
2018-04-02T03:54:36.270Z,5.40
2018-04-02T03:57:03.993Z,5.40
2018-04-02T03:59:32.485Z,5.60
2018-04-02T04:02:00.487Z,5.60
2018-04-02T04:04:28.210Z,5.70
2018-04-02T04:06:56.719Z,5.80
2018-04-02T04:09:24.438Z,5.80
2018-04-02T04:11:52.172Z,5.80
2018-04-02T04:14:20.670Z,5.70
2018-04-02T04:16:48.389Z,5.70
2018-04-02T04:19:16.120Z,5.70
2018-04-02T04:21:44.772Z,5.50
2018-04-02T04:24:12.639Z,5.50
2018-04-02T04:26:40.510Z,5.60
2018-04-02T04:29:08.379Z,5.50
2018-04-02T04:31:36.104Z,5.60
2018-04-02T04:34:04.075Z,5.50
2018-04-02T04:36:31.815Z,5.60
2018-04-02T04:39:00.461Z,5.50
2018-04-02T04:41:28.324Z,5.50
2018-04-02T04:43:56.192Z,5.50
2018-04-02T04:46:23.930Z,5.50
2018-04-02T04:48:51.663Z,5.60
2018-04-02T04:51:20.179Z,5.50
2018-04-02T04:53:47.903Z,5.50
2018-04-02T04:56:16.403Z,5.50
2018-04-02T04:58:44.129Z,5.50
2018-04-02T05:01:11.984Z,5.50
2018-04-02T05:03:39.950Z,5.40
2018-04-02T05:06:07.817Z,5.40
2018-04-02T05:08:35.684Z,5.40
2018-04-02T05:11:03.552Z,5.40
2018-04-02T05:13:31.418Z,5.40
2018-04-02T05:15:59.287Z,5.40
2018-04-02T05:18:27.154Z,5.40
2018-04-02T05:20:55.023Z,5.40
2018-04-02T05:23:22.888Z,5.40
2018-04-02T05:25:50.755Z,5.40
2018-04-02T05:28:18.623Z,5.50
2018-04-02T05:30:46.490Z,5.50
2018-04-02T05:33:14.357Z,5.50
2018-04-02T05:35:42.162Z,5.50
2018-04-02T05:38:10.813Z,5.50
2018-04-02T05:40:38.778Z,5.50
2018-04-02T05:43:06.978Z,5.50
2018-04-02T05:45:36.941Z,5.60
2018-04-02T05:48:04.940Z,5.70
2018-04-02T05:50:32.745Z,5.80
2018-04-02T05:53:01.322Z,6.30
2018-04-02T05:55:29.977Z,6.70
2018-04-02T05:57:58.048Z,6.60
2018-04-02T06:00:25.915Z,7.00
2018-04-02T06:02:53.885Z,7.50
2018-04-02T06:05:24.431Z,8.00
2018-04-02T06:07:52.386Z,8.60
2018-04-02T06:10:20.254Z,9.30
2018-04-02T06:12:48.119Z,10.00
2018-04-02T06:15:15.987Z,10.60
2018-04-02T06:17:43.854Z,11.00
2018-04-02T06:20:11.722Z,11.40
2018-04-02T06:22:39.589Z,11.70
2018-04-02T06:25:07.456Z,12.20
2018-04-02T06:27:35.323Z,12.90
2018-04-02T06:30:03.192Z,13.50
2018-04-02T06:32:31.057Z,13.80
2018-04-02T06:34:58.930Z,13.80
2018-04-02T06:37:26.793Z,13.50
2018-04-02T06:39:54.661Z,13.00
2018-04-02T06:42:22.528Z,12.30
2018-04-02T06:44:50.601Z,11.60
2018-04-02T06:47:19.542Z,10.90
2018-04-02T06:49:47.464Z,10.40
2018-04-02T06:52:15.330Z,9.90
2018-04-02T06:54:43.196Z,9.60
2018-04-02T06:57:11.063Z,9.50
2018-04-02T06:59:39.804Z,9.40
2018-04-02T07:02:07.616Z,9.30
2018-04-02T07:04:35.566Z,9.10
2018-04-02T07:07:04.171Z,8.70
2018-04-02T07:09:32.043Z,8.70
2018-04-02T07:11:59.905Z,8.50
2018-04-02T07:14:27.779Z,8.40
2018-04-02T07:16:55.745Z,8.40
2018-04-02T07:19:23.609Z,8.50
2018-04-02T07:21:51.477Z,8.60
2018-04-02T07:24:19.344Z,8.70
2018-04-02T07:26:47.211Z,8.70
2018-04-02T07:29:15.324Z,8.70
2018-04-02T07:31:43.976Z,8.90
2018-04-02T07:34:11.837Z,8.90
2018-04-02T07:36:39.703Z,9.00
2018-04-02T07:39:07.572Z,9.10
2018-04-02T07:41:35.438Z,9.10
2018-04-02T07:44:04.080Z,9.20
2018-04-02T07:46:32.095Z,9.60
2018-04-02T07:48:59.963Z,9.80
2018-04-02T07:51:27.831Z,10.00
2018-04-02T07:53:55.633Z,9.90
2018-04-02T07:56:24.286Z,10.00
2018-04-02T07:58:52.149Z,10.00
2018-04-02T08:01:20.016Z,10.20
2018-04-02T08:03:47.884Z,10.20
2018-04-02T08:06:15.750Z,10.10
2018-04-02T08:08:43.679Z,10.10
2018-04-02T08:11:12.304Z,10.20
2018-04-02T08:13:40.172Z,10.10
2018-04-02T08:16:08.043Z,10.50
2018-04-02T08:18:35.906Z,10.80
2018-04-02T08:21:03.776Z,11.10
2018-04-02T08:23:31.642Z,11.30
2018-04-02T08:25:59.510Z,11.60
2018-04-02T08:28:27.376Z,11.80
2018-04-02T08:30:55.243Z,11.60
2018-04-02T08:33:23.112Z,11.60
2018-04-02T08:35:51.904Z,11.70
2018-04-02T08:38:19.873Z,11.40
2018-04-02T08:40:47.738Z,11.90
2018-04-02T08:43:15.604Z,12.40
2018-04-02T08:45:43.478Z,12.70
2018-04-02T08:48:11.338Z,12.70
2018-04-02T08:50:39.202Z,13.30
2018-04-02T08:53:07.074Z,13.80
2018-04-02T08:55:34.942Z,14.20
2018-04-02T08:58:02.804Z,14.40
2018-04-02T09:00:30.677Z,14.20
2018-04-02T09:02:58.543Z,14.10
2018-04-02T09:05:26.409Z,14.00
2018-04-02T09:07:54.278Z,14.00
2018-04-02T09:10:22.144Z,13.90
2018-04-02T09:12:50.011Z,13.70
2018-04-02T09:15:17.880Z,14.20
2018-04-02T09:17:45.849Z,14.70
2018-04-02T09:20:14.227Z,14.80
2018-04-02T09:22:42.174Z,15.10
2018-04-02T09:25:10.098Z,15.20
2018-04-02T09:27:38.954Z,14.00
2018-04-02T09:30:06.824Z,14.00
2018-04-02T09:32:36.528Z,13.90
2018-04-02T09:35:04.609Z,14.20
2018-04-02T09:37:32.473Z,14.10
2018-04-02T09:40:00.340Z,14.30
2018-04-02T09:42:28.207Z,14.10
2018-04-02T09:44:56.077Z,14.20
2018-04-02T09:47:23.875Z,14.50
2018-04-02T09:49:52.426Z,14.40
2018-04-02T09:52:20.293Z,14.40
2018-04-02T09:54:48.158Z,14.50
2018-04-02T09:57:16.640Z,14.30
2018-04-02T09:59:44.507Z,14.00
2018-04-02T10:02:14.217Z,13.90
2018-04-02T10:04:43.052Z,13.90
2018-04-02T10:07:11.693Z,13.60
2018-04-02T10:09:39.564Z,13.60
2018-04-02T10:12:07.427Z,13.60
2018-04-02T10:14:35.300Z,13.80
2018-04-02T10:17:03.090Z,13.90
2018-04-02T10:19:30.928Z,14.10
2018-04-02T10:21:58.794Z,14.40
2018-04-02T10:24:26.661Z,14.50
2018-04-02T10:26:54.529Z,14.60
2018-04-02T10:29:22.398Z,14.80
2018-04-02T10:31:50.263Z,14.60
2018-04-02T10:34:18.130Z,14.40
2018-04-02T10:36:45.997Z,14.30
2018-04-02T10:39:13.865Z,14.20
2018-04-02T10:41:41.732Z,14.10
2018-04-02T10:44:09.600Z,14.40
2018-04-02T10:46:37.468Z,14.60
2018-04-02T10:49:05.335Z,14.70
2018-04-02T10:51:33.204Z,14.60
2018-04-02T10:54:01.069Z,14.60
2018-04-02T10:56:28.936Z,15.00
2018-04-02T10:58:56.805Z,15.50
2018-04-02T11:01:24.670Z,15.50
2018-04-02T11:03:52.539Z,15.50
2018-04-02T11:06:20.407Z,15.90
2018-04-02T11:08:48.272Z,15.80
2018-04-02T11:11:16.141Z,15.90
2018-04-02T11:13:44.007Z,16.20
2018-04-02T11:16:11.879Z,16.60
2018-04-02T11:18:39.742Z,17.00
2018-04-02T11:21:07.609Z,16.40
2018-04-02T11:23:35.479Z,16.50
2018-04-02T11:26:03.347Z,16.40
2018-04-02T11:28:31.211Z,16.50
2018-04-02T11:30:59.079Z,16.60
2018-04-02T11:33:26.946Z,16.50
2018-04-02T11:35:54.817Z,16.70
2018-04-02T11:38:23.500Z,17.20
2018-04-02T11:40:51.367Z,17.20
2018-04-02T11:43:19.233Z,17.50
2018-04-02T11:45:47.101Z,17.50
2018-04-02T11:48:14.969Z,17.40
2018-04-02T11:50:42.836Z,17.10
2018-04-02T11:53:10.703Z,16.70
2018-04-02T11:55:38.575Z,16.80
2018-04-02T11:58:06.438Z,16.80
2018-04-02T12:00:34.307Z,17.00
2018-04-02T12:03:02.176Z,17.40
2018-04-02T12:05:30.962Z,17.70
2018-04-02T12:07:58.828Z,17.70
2018-04-02T12:10:26.696Z,17.20
2018-04-02T12:12:54.563Z,17.50
2018-04-02T12:15:22.431Z,17.90
2018-04-02T12:17:50.301Z,17.40
2018-04-02T12:20:20.790Z,17.30
2018-04-02T12:22:51.808Z,17.30
2018-04-02T12:25:21.697Z,17.20
2018-04-02T12:27:50.062Z,17.40
2018-04-02T12:30:17.929Z,17.30
2018-04-02T12:32:45.798Z,17.30
2018-04-02T12:35:13.664Z,17.40
2018-04-02T12:37:41.531Z,17.30
2018-04-02T12:40:09.400Z,17.50
2018-04-02T12:42:37.126Z,18.00
2018-04-02T12:45:04.928Z,17.90
2018-04-02T12:47:33.618Z,18.40
2018-04-02T12:50:01.483Z,18.40
2018-04-02T12:52:29.351Z,18.40
2018-04-02T12:54:59.629Z,18.30
2018-04-02T12:57:29.932Z,17.80
2018-04-02T12:59:57.866Z,17.70
2018-04-02T13:02:25.733Z,17.50
2018-04-02T13:04:53.602Z,17.60
2018-04-02T13:07:21.398Z,17.80
2018-04-02T13:09:49.955Z,17.60
2018-04-02T13:12:17.817Z,17.60
2018-04-02T13:14:45.686Z,18.10
2018-04-02T13:17:13.487Z,18.20
2018-04-02T13:19:42.135Z,17.60
2018-04-02T13:22:09.936Z,17.60
2018-04-02T13:24:38.589Z,17.20
2018-04-02T13:27:06.456Z,17.20
2018-04-02T13:29:34.322Z,17.20
2018-04-02T13:32:02.190Z,17.20
2018-04-02T13:34:30.205Z,17.20
2018-04-02T13:36:58.847Z,16.70
2018-04-02T13:39:26.717Z,16.60
2018-04-02T13:41:54.581Z,16.80
2018-04-02T13:44:22.448Z,16.60
2018-04-02T13:46:50.315Z,16.60
2018-04-02T13:49:18.183Z,16.50
2018-04-02T13:51:46.056Z,16.50
2018-04-02T13:54:13.925Z,16.60
2018-04-02T13:56:41.795Z,16.50
2018-04-02T13:59:09.653Z,16.30
2018-04-02T14:01:37.520Z,16.30
2018-04-02T14:04:05.387Z,16.40
2018-04-02T14:06:33.254Z,16.30
2018-04-02T14:09:01.121Z,16.20
2018-04-02T14:11:28.989Z,16.20
2018-04-02T14:13:56.855Z,16.10
2018-04-02T14:16:24.725Z,16.10
2018-04-02T14:18:52.592Z,16.10
2018-04-02T14:21:20.457Z,16.00
2018-04-02T14:23:48.328Z,16.00
2018-04-02T14:26:16.192Z,16.00
2018-04-02T14:28:44.060Z,15.90
2018-04-02T14:31:11.927Z,16.10
2018-04-02T14:33:39.794Z,16.20
2018-04-02T14:36:07.662Z,16.30
2018-04-02T14:38:35.530Z,16.20
2018-04-02T14:41:03.395Z,16.10
2018-04-02T14:43:31.264Z,15.90
2018-04-02T14:45:59.130Z,16.00
2018-04-02T14:48:27.003Z,15.90
2018-04-02T14:50:54.871Z,15.90
2018-04-02T14:53:22.733Z,15.80
2018-04-02T14:55:50.601Z,15.80
2018-04-02T14:58:18.467Z,15.90
2018-04-02T15:00:46.335Z,15.90
2018-04-02T15:03:14.202Z,15.80
2018-04-02T15:05:41.927Z,15.90
2018-04-02T15:08:09.995Z,16.10
2018-04-02T15:10:37.804Z,16.20
2018-04-02T15:13:05.672Z,16.30
2018-04-02T15:15:33.437Z,16.40
2018-04-02T15:18:01.165Z,16.60
2018-04-02T15:20:28.901Z,16.40
2018-04-02T15:22:57.418Z,16.70
2018-04-02T15:25:25.971Z,16.90
2018-04-02T15:27:54.513Z,17.00
2018-04-02T15:30:22.278Z,16.90
2018-04-02T15:32:50.969Z,16.90
2018-04-02T15:35:19.651Z,16.80
2018-04-02T15:37:47.519Z,16.80
2018-04-02T15:40:15.385Z,16.80
2018-04-02T15:42:43.265Z,16.60
2018-04-02T15:45:11.131Z,16.60
2018-04-02T15:47:38.987Z,16.40
2018-04-02T15:50:06.860Z,16.10
2018-04-02T15:52:34.724Z,16.00
2018-04-02T15:55:03.512Z,16.00
2018-04-02T15:57:31.378Z,15.90
2018-04-02T15:59:59.990Z,15.90
2018-04-02T16:02:27.830Z,15.90
2018-04-02T16:04:55.801Z,15.90
2018-04-02T16:07:23.667Z,16.00
2018-04-02T16:09:51.535Z,16.00
2018-04-02T16:12:19.401Z,16.10
2018-04-02T16:14:47.270Z,16.10
2018-04-02T16:17:15.138Z,16.00
2018-04-02T16:19:43.005Z,16.00
2018-04-02T16:22:10.874Z,16.00
2018-04-02T16:24:38.742Z,16.00
2018-04-02T16:27:06.608Z,16.00
2018-04-02T16:29:34.474Z,16.00
2018-04-02T16:32:02.341Z,16.00
2018-04-02T16:34:30.208Z,15.90
2018-04-02T16:36:58.075Z,15.90
2018-04-02T16:39:25.959Z,15.90
2018-04-02T16:41:53.912Z,15.90
2018-04-02T16:44:21.779Z,15.90
2018-04-02T16:46:49.647Z,15.80
2018-04-02T16:49:17.513Z,15.70
2018-04-02T16:51:45.381Z,15.70
2018-04-02T16:54:13.248Z,15.70
2018-04-02T16:56:41.116Z,15.70
2018-04-02T16:59:08.983Z,15.60
2018-04-02T17:01:36.851Z,15.60
2018-04-02T17:04:04.717Z,15.60
2018-04-02T17:06:32.585Z,15.60
2018-04-02T17:09:00.451Z,15.50
2018-04-02T17:11:28.320Z,15.60
2018-04-02T17:13:56.187Z,15.60
2018-04-02T17:16:24.054Z,15.60
2018-04-02T17:18:51.921Z,15.60
2018-04-02T17:21:19.788Z,15.60
2018-04-02T17:23:47.657Z,15.50
2018-04-02T17:26:15.523Z,15.60
2018-04-02T17:28:43.391Z,15.50
2018-04-02T17:31:11.259Z,15.30
2018-04-02T17:33:39.126Z,15.30
2018-04-02T17:36:06.993Z,15.30
2018-04-02T17:38:34.859Z,15.30
2018-04-02T17:41:02.728Z,15.40
2018-04-02T17:43:30.594Z,15.50
2018-04-02T17:45:58.466Z,15.60
2018-04-02T17:48:26.328Z,15.60
2018-04-02T17:50:54.094Z,15.60
2018-04-02T17:53:21.962Z,15.60
2018-04-02T17:55:49.832Z,15.70
2018-04-02T17:58:17.701Z,15.60
2018-04-02T18:00:45.563Z,15.30
2018-04-02T18:03:13.430Z,15.10
2018-04-02T18:05:41.298Z,14.80
2018-04-02T18:08:09.168Z,14.60
2018-04-02T18:10:37.033Z,14.50
2018-04-02T18:13:04.900Z,14.30
2018-04-02T18:15:32.767Z,14.20
2018-04-02T18:18:00.634Z,14.20
2018-04-02T18:20:28.502Z,14.20
2018-04-02T18:22:56.370Z,13.90
2018-04-02T18:25:24.291Z,13.60
2018-04-02T18:27:52.981Z,13.20
2018-04-02T18:30:21.506Z,13.00
2018-04-02T18:32:49.402Z,13.00
2018-04-02T18:35:18.003Z,12.90
2018-04-02T18:37:45.826Z,12.90
2018-04-02T18:40:13.700Z,12.90
2018-04-02T18:42:41.562Z,12.90
2018-04-02T18:45:09.428Z,13.00
2018-04-02T18:47:37.300Z,13.10
2018-04-02T18:50:05.164Z,13.20
2018-04-02T18:52:33.029Z,13.30
2018-04-02T18:55:00.898Z,13.40
2018-04-02T18:57:28.669Z,13.50
2018-04-02T18:59:56.529Z,13.50
2018-04-02T19:02:24.397Z,13.60
2018-04-02T19:04:52.264Z,13.80
2018-04-02T19:07:20.131Z,13.90
2018-04-02T19:09:48.003Z,14.00
2018-04-02T19:12:15.866Z,14.00
2018-04-02T19:14:43.733Z,14.10
2018-04-02T19:17:11.600Z,14.10
2018-04-02T19:19:39.468Z,14.20
2018-04-02T19:22:07.336Z,14.00
2018-04-02T19:24:35.211Z,13.90
2018-04-02T19:27:03.070Z,13.90
2018-04-02T19:29:30.936Z,13.70
2018-04-02T19:31:58.806Z,13.70
2018-04-02T19:34:26.672Z,13.70
2018-04-02T19:36:54.589Z,13.70
2018-04-02T19:39:23.225Z,13.70
2018-04-02T19:41:51.087Z,13.60
2018-04-02T19:44:18.960Z,13.70
2018-04-02T19:46:46.828Z,13.70
2018-04-02T19:49:14.694Z,13.60
2018-04-02T19:51:42.563Z,13.50
2018-04-02T19:54:10.429Z,13.40
2018-04-02T19:56:38.297Z,13.30
2018-04-02T19:59:06.164Z,13.30
2018-04-02T20:01:34.032Z,13.30
2018-04-02T20:04:01.899Z,13.00
2018-04-02T20:06:29.766Z,12.80
2018-04-02T20:08:57.634Z,12.80
2018-04-02T20:11:25.399Z,12.70
2018-04-02T20:13:53.266Z,12.00
2018-04-02T20:16:21.132Z,11.90
2018-04-02T20:18:49.000Z,12.00
2018-04-02T20:21:16.867Z,12.10
2018-04-02T20:23:44.735Z,11.80
2018-04-02T20:26:12.603Z,11.80
2018-04-02T20:28:40.470Z,12.00
2018-04-02T20:31:08.430Z,12.00
2018-04-02T20:33:36.307Z,11.60
2018-04-02T20:36:04.181Z,11.70
2018-04-02T20:38:32.041Z,11.80
2018-04-02T20:40:59.909Z,11.90
2018-04-02T20:43:27.784Z,12.00
2018-04-02T20:45:55.648Z,11.90
2018-04-02T20:48:24.264Z,11.70
2018-04-02T20:50:52.913Z,11.80
2018-04-02T20:53:20.780Z,11.70
2018-04-02T20:55:48.648Z,11.90
2018-04-02T20:58:16.515Z,11.90
2018-04-02T21:00:44.383Z,11.70
2018-04-02T21:03:12.249Z,11.50
2018-04-02T21:05:40.117Z,11.50
2018-04-02T21:08:07.984Z,11.50
2018-04-02T21:10:35.852Z,11.50
2018-04-02T21:13:03.719Z,11.40
2018-04-02T21:15:31.591Z,11.40
2018-04-02T21:17:59.453Z,11.50
2018-04-02T21:20:27.322Z,11.60
2018-04-02T21:22:55.187Z,11.50
2018-04-02T21:25:23.056Z,11.30
2018-04-02T21:27:50.924Z,11.30
2018-04-02T21:30:18.790Z,11.20
2018-04-02T21:32:48.579Z,11.20
2018-04-02T21:35:18.656Z,11.30
2018-04-02T21:37:46.591Z,11.40
2018-04-02T21:40:14.459Z,11.40
2018-04-02T21:42:42.326Z,11.50
2018-04-02T21:45:10.192Z,11.40
2018-04-02T21:47:38.060Z,10.80
2018-04-02T21:50:05.926Z,10.90
2018-04-02T21:52:33.900Z,11.10
2018-04-02T21:55:02.583Z,11.00
2018-04-02T21:57:31.270Z,10.90
2018-04-02T21:59:59.180Z,10.90
2018-04-02T22:02:27.822Z,10.60
2018-04-02T22:04:55.692Z,10.60
2018-04-02T22:07:23.558Z,10.50
2018-04-02T22:09:51.425Z,10.50
2018-04-02T22:12:19.293Z,10.60
2018-04-02T22:14:47.161Z,10.80
2018-04-02T22:17:15.027Z,11.00
2018-04-02T22:19:42.894Z,11.00
2018-04-02T22:22:10.771Z,11.00
2018-04-02T22:24:39.448Z,11.30
2018-04-02T22:27:07.316Z,11.30
2018-04-02T22:29:35.184Z,11.30
2018-04-02T22:32:03.051Z,11.40
2018-04-02T22:34:30.918Z,11.50
2018-04-02T22:36:58.785Z,11.50
2018-04-02T22:39:26.652Z,11.70
2018-04-02T22:41:54.522Z,11.80
2018-04-02T22:44:22.387Z,11.80
2018-04-02T22:46:50.254Z,11.90
2018-04-02T22:49:18.122Z,11.90
2018-04-02T22:51:45.989Z,12.00
2018-04-02T22:54:13.856Z,12.10
2018-04-02T22:56:41.723Z,12.10
2018-04-02T22:59:09.601Z,12.20
2018-04-02T23:01:37.457Z,12.20
2018-04-02T23:04:05.428Z,12.30
2018-04-02T23:06:33.295Z,12.30
2018-04-02T23:09:01.162Z,12.40
2018-04-02T23:11:29.030Z,12.40
2018-04-02T23:13:56.898Z,12.50
2018-04-02T23:16:24.697Z,12.40
2018-04-02T23:18:53.351Z,12.50
2018-04-02T23:21:21.216Z,12.40
2018-04-02T23:23:49.083Z,12.40
2018-04-02T23:26:16.955Z,12.50
2018-04-02T23:28:44.817Z,12.50
2018-04-02T23:31:12.697Z,12.60
2018-04-02T23:33:41.269Z,12.50
2018-04-02T23:36:09.137Z,12.50
2018-04-02T23:38:37.003Z,12.50
2018-04-02T23:41:04.925Z,12.60
2018-04-02T23:43:33.455Z,12.60
2018-04-02T23:46:01.324Z,12.60
2018-04-02T23:48:29.189Z,12.50
2018-04-02T23:50:57.057Z,12.60
2018-04-02T23:53:24.925Z,12.60
2018-04-02T23:55:52.793Z,12.60
2018-04-02T23:58:20.659Z,12.60
